sensor_id;sensor_type;location;lat;lon;timestamp;P1;durP1;ratioP1;P2;durP2;ratioP2
31130;SDS011;20292;50.944;4.034;2022-12-05T00:03:37;90.25;;;35.67;;
31130;SDS011;20292;50.944;4.034;2022-12-05T00:06:02;95.35;;;37.67;;
31130;SDS011;20292;50.944;4.034;2022-12-05T00:08:28;100.38;;;38.60;;
31130;SDS011;20292;50.944;4.034;2022-12-05T00:10:54;95.45;;;38.65;;
31130;SDS011;20292;50.944;4.034;2022-12-05T00:13:19;93.72;;;37.63;;
31130;SDS011;20292;50.944;4.034;2022-12-05T00:15:45;99.25;;;39.10;;
31130;SDS011;20292;50.944;4.034;2022-12-05T00:18:10;98.75;;;36.85;;
31130;SDS011;20292;50.944;4.034;2022-12-05T00:20:36;102.05;;;38.05;;
31130;SDS011;20292;50.944;4.034;2022-12-05T00:23:01;102.53;;;39.08;;
31130;SDS011;20292;50.944;4.034;2022-12-05T00:25:27;105.28;;;37.88;;
31130;SDS011;20292;50.944;4.034;2022-12-05T00:27:53;101.65;;;37.70;;
31130;SDS011;20292;50.944;4.034;2022-12-05T00:30:18;100.00;;;35.90;;
31130;SDS011;20292;50.944;4.034;2022-12-05T00:32:44;101.28;;;37.38;;
31130;SDS011;20292;50.944;4.034;2022-12-05T00:35:09;99.80;;;36.58;;
31130;SDS011;20292;50.944;4.034;2022-12-05T00:37:35;102.40;;;37.28;;
31130;SDS011;20292;50.944;4.034;2022-12-05T00:40:01;104.80;;;36.53;;
31130;SDS011;20292;50.944;4.034;2022-12-05T00:42:27;103.95;;;36.15;;
31130;SDS011;20292;50.944;4.034;2022-12-05T00:44:52;110.07;;;35.40;;
31130;SDS011;20292;50.944;4.034;2022-12-05T00:47:18;100.38;;;36.55;;
31130;SDS011;20292;50.944;4.034;2022-12-05T00:49:43;105.53;;;38.50;;
31130;SDS011;20292;50.944;4.034;2022-12-05T00:52:09;100.15;;;36.92;;
31130;SDS011;20292;50.944;4.034;2022-12-05T00:54:34;114.60;;;38.42;;
31130;SDS011;20292;50.944;4.034;2022-12-05T00:57:00;110.72;;;38.45;;
31130;SDS011;20292;50.944;4.034;2022-12-05T00:59:25;102.03;;;37.70;;
31130;SDS011;20292;50.944;4.034;2022-12-05T01:01:51;109.35;;;37.20;;
31130;SDS011;20292;50.944;4.034;2022-12-05T01:04:20;110.93;;;37.50;;
31130;SDS011;20292;50.944;4.034;2022-12-05T01:06:48;102.72;;;38.03;;
31130;SDS011;20292;50.944;4.034;2022-12-05T01:09:15;109.50;;;37.65;;
31130;SDS011;20292;50.944;4.034;2022-12-05T01:11:42;104.13;;;36.40;;
31130;SDS011;20292;50.944;4.034;2022-12-05T01:14:09;103.43;;;36.97;;
31130;SDS011;20292;50.944;4.034;2022-12-05T01:16:36;105.00;;;37.80;;
31130;SDS011;20292;50.944;4.034;2022-12-05T01:19:14;103.00;;;36.40;;
31130;SDS011;20292;50.944;4.034;2022-12-05T01:21:50;96.68;;;35.85;;
31130;SDS011;20292;50.944;4.034;2022-12-05T01:24:17;101.13;;;36.45;;
31130;SDS011;20292;50.944;4.034;2022-12-05T01:26:44;109.30;;;37.17;;
31130;SDS011;20292;50.944;4.034;2022-12-05T01:29:13;106.57;;;37.33;;
31130;SDS011;20292;50.944;4.034;2022-12-05T01:31:41;114.35;;;39.75;;
31130;SDS011;20292;50.944;4.034;2022-12-05T01:34:09;105.88;;;38.13;;
31130;SDS011;20292;50.944;4.034;2022-12-05T01:36:36;110.15;;;36.83;;
31130;SDS011;20292;50.944;4.034;2022-12-05T01:39:06;111.50;;;37.50;;
31130;SDS011;20292;50.944;4.034;2022-12-05T01:41:35;100.30;;;37.50;;
31130;SDS011;20292;50.944;4.034;2022-12-05T01:44:07;105.78;;;38.13;;
31130;SDS011;20292;50.944;4.034;2022-12-05T01:46:37;109.90;;;39.60;;
31130;SDS011;20292;50.944;4.034;2022-12-05T01:49:20;98.55;;;38.50;;
31130;SDS011;20292;50.944;4.034;2022-12-05T01:51:53;105.35;;;37.55;;
31130;SDS011;20292;50.944;4.034;2022-12-05T01:54:23;103.85;;;36.83;;
31130;SDS011;20292;50.944;4.034;2022-12-05T01:56:50;103.40;;;37.03;;
31130;SDS011;20292;50.944;4.034;2022-12-05T01:59:19;98.65;;;37.50;;
31130;SDS011;20292;50.944;4.034;2022-12-05T02:01:46;96.82;;;37.72;;
31130;SDS011;20292;50.944;4.034;2022-12-05T02:04:12;103.15;;;38.50;;
31130;SDS011;20292;50.944;4.034;2022-12-05T02:06:38;98.18;;;36.30;;
31130;SDS011;20292;50.944;4.034;2022-12-05T02:09:04;104.03;;;36.47;;
31130;SDS011;20292;50.944;4.034;2022-12-05T02:11:30;100.78;;;37.53;;
31130;SDS011;20292;50.944;4.034;2022-12-05T02:16:57;104.68;;;37.53;;
31130;SDS011;20292;50.944;4.034;2022-12-05T02:31:14;97.70;;;36.17;;
31130;SDS011;20292;50.944;4.034;2022-12-05T02:36:10;97.38;;;37.45;;
31130;SDS011;20292;50.944;4.034;2022-12-05T02:38:56;99.65;;;37.67;;
31130;SDS011;20292;50.944;4.034;2022-12-05T02:41:36;100.43;;;37.90;;
31130;SDS011;20292;50.944;4.034;2022-12-05T02:44:13;95.15;;;36.38;;
31130;SDS011;20292;50.944;4.034;2022-12-05T02:46:44;99.03;;;36.75;;
31130;SDS011;20292;50.944;4.034;2022-12-05T02:49:14;93.18;;;38.13;;
31130;SDS011;20292;50.944;4.034;2022-12-05T02:51:44;99.25;;;37.53;;
31130;SDS011;20292;50.944;4.034;2022-12-05T02:54:15;84.55;;;35.63;;
31130;SDS011;20292;50.944;4.034;2022-12-05T02:56:45;94.55;;;36.47;;
31130;SDS011;20292;50.944;4.034;2022-12-05T02:59:13;90.97;;;36.63;;
31130;SDS011;20292;50.944;4.034;2022-12-05T03:01:39;91.78;;;37.17;;
31130;SDS011;20292;50.944;4.034;2022-12-05T03:04:09;92.22;;;35.47;;
31130;SDS011;20292;50.944;4.034;2022-12-05T03:06:44;86.57;;;36.22;;
31130;SDS011;20292;50.944;4.034;2022-12-05T03:09:17;86.95;;;36.83;;
31130;SDS011;20292;50.944;4.034;2022-12-05T03:12:26;89.13;;;36.70;;
31130;SDS011;20292;50.944;4.034;2022-12-05T03:17:30;84.35;;;34.28;;
31130;SDS011;20292;50.944;4.034;2022-12-05T03:23:01;81.93;;;33.58;;
31130;SDS011;20292;50.944;4.034;2022-12-05T03:25:49;87.38;;;32.88;;
31130;SDS011;20292;50.944;4.034;2022-12-05T03:28:34;91.10;;;34.33;;
31130;SDS011;20292;50.944;4.034;2022-12-05T03:31:12;78.93;;;34.13;;
31130;SDS011;20292;50.944;4.034;2022-12-05T03:33:44;77.80;;;34.15;;
31130;SDS011;20292;50.944;4.034;2022-12-05T03:36:15;77.40;;;33.80;;
31130;SDS011;20292;50.944;4.034;2022-12-05T03:38:46;78.00;;;33.53;;
31130;SDS011;20292;50.944;4.034;2022-12-05T03:41:14;85.00;;;35.15;;
31130;SDS011;20292;50.944;4.034;2022-12-05T03:46:17;80.30;;;33.47;;
31130;SDS011;20292;50.944;4.034;2022-12-05T03:51:26;78.13;;;31.60;;
31130;SDS011;20292;50.944;4.034;2022-12-05T03:54:01;83.32;;;34.33;;
31130;SDS011;20292;50.944;4.034;2022-12-05T03:56:41;84.85;;;34.67;;
31130;SDS011;20292;50.944;4.034;2022-12-05T03:59:13;85.07;;;33.95;;
31130;SDS011;20292;50.944;4.034;2022-12-05T04:01:49;70.30;;;32.30;;
31130;SDS011;20292;50.944;4.034;2022-12-05T04:04:23;72.32;;;32.78;;
31130;SDS011;20292;50.944;4.034;2022-12-05T04:06:55;82.22;;;35.38;;
31130;SDS011;20292;50.944;4.034;2022-12-05T04:09:30;80.50;;;32.70;;
31130;SDS011;20292;50.944;4.034;2022-12-05T04:12:02;79.57;;;33.17;;
31130;SDS011;20292;50.944;4.034;2022-12-05T04:14:39;78.55;;;32.22;;
31130;SDS011;20292;50.944;4.034;2022-12-05T04:17:15;78.90;;;32.95;;
31130;SDS011;20292;50.944;4.034;2022-12-05T04:20:05;78.20;;;33.10;;
31130;SDS011;20292;50.944;4.034;2022-12-05T04:22:55;77.68;;;31.42;;
31130;SDS011;20292;50.944;4.034;2022-12-05T04:25:21;78.55;;;32.28;;
31130;SDS011;20292;50.944;4.034;2022-12-05T04:28:04;77.57;;;31.55;;
31130;SDS011;20292;50.944;4.034;2022-12-05T04:33:41;75.43;;;31.27;;
31130;SDS011;20292;50.944;4.034;2022-12-05T04:41:49;75.65;;;31.92;;
31130;SDS011;20292;50.944;4.034;2022-12-05T04:44:23;66.15;;;30.50;;
31130;SDS011;20292;50.944;4.034;2022-12-05T04:46:53;75.68;;;31.10;;
31130;SDS011;20292;50.944;4.034;2022-12-05T04:49:23;81.75;;;30.92;;
31130;SDS011;20292;50.944;4.034;2022-12-05T04:51:52;80.45;;;32.08;;
31130;SDS011;20292;50.944;4.034;2022-12-05T04:54:25;72.57;;;31.63;;
31130;SDS011;20292;50.944;4.034;2022-12-05T04:57:01;73.30;;;31.20;;
31130;SDS011;20292;50.944;4.034;2022-12-05T04:59:32;79.18;;;32.08;;
31130;SDS011;20292;50.944;4.034;2022-12-05T05:01:58;74.55;;;32.30;;
31130;SDS011;20292;50.944;4.034;2022-12-05T05:04:31;75.75;;;31.20;;
31130;SDS011;20292;50.944;4.034;2022-12-05T05:07:09;77.78;;;31.52;;
31130;SDS011;20292;50.944;4.034;2022-12-05T05:09:36;76.63;;;32.33;;
31130;SDS011;20292;50.944;4.034;2022-12-05T05:12:02;80.93;;;33.08;;
31130;SDS011;20292;50.944;4.034;2022-12-05T05:14:28;83.38;;;32.25;;
31130;SDS011;20292;50.944;4.034;2022-12-05T05:16:54;72.70;;;31.70;;
31130;SDS011;20292;50.944;4.034;2022-12-05T05:19:21;80.30;;;33.15;;
31130;SDS011;20292;50.944;4.034;2022-12-05T05:21:46;73.32;;;32.58;;
31130;SDS011;20292;50.944;4.034;2022-12-05T05:24:12;73.50;;;31.75;;
31130;SDS011;20292;50.944;4.034;2022-12-05T05:26:40;78.10;;;31.85;;
31130;SDS011;20292;50.944;4.034;2022-12-05T05:29:07;77.43;;;31.58;;
31130;SDS011;20292;50.944;4.034;2022-12-05T05:31:34;79.90;;;33.30;;
31130;SDS011;20292;50.944;4.034;2022-12-05T05:33:59;80.30;;;34.50;;
31130;SDS011;20292;50.944;4.034;2022-12-05T05:36:26;82.88;;;33.55;;
31130;SDS011;20292;50.944;4.034;2022-12-05T05:38:52;86.03;;;32.78;;
31130;SDS011;20292;50.944;4.034;2022-12-05T05:43:53;78.40;;;32.60;;
31130;SDS011;20292;50.944;4.034;2022-12-05T05:46:20;78.43;;;33.40;;
31130;SDS011;20292;50.944;4.034;2022-12-05T05:48:47;76.63;;;31.95;;
31130;SDS011;20292;50.944;4.034;2022-12-05T05:51:13;73.93;;;31.92;;
31130;SDS011;20292;50.944;4.034;2022-12-05T05:53:40;79.32;;;33.25;;
31130;SDS011;20292;50.944;4.034;2022-12-05T05:56:07;84.78;;;33.47;;
31130;SDS011;20292;50.944;4.034;2022-12-05T05:58:34;82.70;;;33.58;;
31130;SDS011;20292;50.944;4.034;2022-12-05T06:03:34;81.38;;;32.15;;
31130;SDS011;20292;50.944;4.034;2022-12-05T06:06:01;77.65;;;32.70;;
31130;SDS011;20292;50.944;4.034;2022-12-05T06:08:29;73.57;;;31.48;;
31130;SDS011;20292;50.944;4.034;2022-12-05T06:10:55;76.47;;;32.80;;
31130;SDS011;20292;50.944;4.034;2022-12-05T06:13:21;81.47;;;33.55;;
31130;SDS011;20292;50.944;4.034;2022-12-05T06:15:47;72.93;;;33.03;;
31130;SDS011;20292;50.944;4.034;2022-12-05T06:18:12;71.57;;;32.42;;
31130;SDS011;20292;50.944;4.034;2022-12-05T06:20:38;88.70;;;34.40;;
31130;SDS011;20292;50.944;4.034;2022-12-05T06:23:03;81.05;;;31.85;;
31130;SDS011;20292;50.944;4.034;2022-12-05T06:25:29;79.80;;;32.78;;
31130;SDS011;20292;50.944;4.034;2022-12-05T06:27:54;82.75;;;32.83;;
31130;SDS011;20292;50.944;4.034;2022-12-05T06:30:20;79.95;;;33.75;;
31130;SDS011;20292;50.944;4.034;2022-12-05T06:32:46;80.13;;;33.70;;
31130;SDS011;20292;50.944;4.034;2022-12-05T06:35:11;80.38;;;34.35;;
31130;SDS011;20292;50.944;4.034;2022-12-05T06:37:43;81.70;;;32.97;;
31130;SDS011;20292;50.944;4.034;2022-12-05T06:40:12;73.57;;;33.30;;
31130;SDS011;20292;50.944;4.034;2022-12-05T06:42:38;78.03;;;33.72;;
31130;SDS011;20292;50.944;4.034;2022-12-05T06:45:04;78.50;;;32.95;;
31130;SDS011;20292;50.944;4.034;2022-12-05T06:47:30;80.78;;;34.17;;
31130;SDS011;20292;50.944;4.034;2022-12-05T06:49:56;85.90;;;33.90;;
31130;SDS011;20292;50.944;4.034;2022-12-05T06:52:21;82.53;;;33.60;;
31130;SDS011;20292;50.944;4.034;2022-12-05T06:54:47;77.32;;;33.13;;
31130;SDS011;20292;50.944;4.034;2022-12-05T06:57:13;78.20;;;33.70;;
31130;SDS011;20292;50.944;4.034;2022-12-05T06:59:39;81.60;;;34.88;;
31130;SDS011;20292;50.944;4.034;2022-12-05T07:02:04;80.43;;;35.05;;
31130;SDS011;20292;50.944;4.034;2022-12-05T07:04:32;80.90;;;33.85;;
31130;SDS011;20292;50.944;4.034;2022-12-05T07:06:58;81.43;;;33.83;;
31130;SDS011;20292;50.944;4.034;2022-12-05T07:09:26;85.57;;;35.42;;
31130;SDS011;20292;50.944;4.034;2022-12-05T07:12:10;91.72;;;34.78;;
31130;SDS011;20292;50.944;4.034;2022-12-05T07:14:37;89.55;;;35.30;;
31130;SDS011;20292;50.944;4.034;2022-12-05T07:17:02;95.10;;;36.25;;
31130;SDS011;20292;50.944;4.034;2022-12-05T07:19:28;89.03;;;34.75;;
31130;SDS011;20292;50.944;4.034;2022-12-05T07:21:54;90.07;;;34.97;;
31130;SDS011;20292;50.944;4.034;2022-12-05T07:24:19;79.00;;;33.17;;
31130;SDS011;20292;50.944;4.034;2022-12-05T07:26:45;84.68;;;35.17;;
31130;SDS011;20292;50.944;4.034;2022-12-05T07:29:10;85.43;;;33.35;;
31130;SDS011;20292;50.944;4.034;2022-12-05T07:31:36;84.80;;;34.50;;
31130;SDS011;20292;50.944;4.034;2022-12-05T07:34:01;85.28;;;34.70;;
31130;SDS011;20292;50.944;4.034;2022-12-05T07:36:27;87.38;;;34.92;;
31130;SDS011;20292;50.944;4.034;2022-12-05T07:38:53;80.72;;;34.53;;
31130;SDS011;20292;50.944;4.034;2022-12-05T07:41:22;85.10;;;35.05;;
31130;SDS011;20292;50.944;4.034;2022-12-05T07:43:49;85.93;;;34.60;;
31130;SDS011;20292;50.944;4.034;2022-12-05T07:46:16;81.22;;;34.75;;
31130;SDS011;20292;50.944;4.034;2022-12-05T07:48:42;82.70;;;34.97;;
31130;SDS011;20292;50.944;4.034;2022-12-05T07:51:08;80.65;;;34.97;;
31130;SDS011;20292;50.944;4.034;2022-12-05T07:53:34;87.78;;;35.88;;
31130;SDS011;20292;50.944;4.034;2022-12-05T07:56:02;81.00;;;35.38;;
31130;SDS011;20292;50.944;4.034;2022-12-05T07:58:30;82.93;;;35.38;;
31130;SDS011;20292;50.944;4.034;2022-12-05T08:00:56;81.50;;;34.38;;
31130;SDS011;20292;50.944;4.034;2022-12-05T08:03:29;84.30;;;35.70;;
31130;SDS011;20292;50.944;4.034;2022-12-05T08:05:54;78.07;;;34.05;;
31130;SDS011;20292;50.944;4.034;2022-12-05T08:08:25;73.70;;;34.67;;
31130;SDS011;20292;50.944;4.034;2022-12-05T08:10:50;78.72;;;35.38;;
31130;SDS011;20292;50.944;4.034;2022-12-05T08:13:16;86.57;;;34.55;;
31130;SDS011;20292;50.944;4.034;2022-12-05T08:15:41;83.57;;;35.33;;
31130;SDS011;20292;50.944;4.034;2022-12-05T08:18:07;92.07;;;37.35;;
31130;SDS011;20292;50.944;4.034;2022-12-05T08:20:32;81.63;;;36.25;;
31130;SDS011;20292;50.944;4.034;2022-12-05T08:22:58;85.00;;;37.15;;
31130;SDS011;20292;50.944;4.034;2022-12-05T08:25:23;87.85;;;37.63;;
31130;SDS011;20292;50.944;4.034;2022-12-05T08:27:49;86.70;;;37.72;;
31130;SDS011;20292;50.944;4.034;2022-12-05T08:30:15;93.95;;;36.65;;
31130;SDS011;20292;50.944;4.034;2022-12-05T08:32:41;91.47;;;36.60;;
31130;SDS011;20292;50.944;4.034;2022-12-05T08:35:06;88.15;;;36.30;;
31130;SDS011;20292;50.944;4.034;2022-12-05T08:37:33;90.20;;;36.40;;
31130;SDS011;20292;50.944;4.034;2022-12-05T08:39:59;99.72;;;39.40;;
31130;SDS011;20292;50.944;4.034;2022-12-05T08:42:24;96.43;;;38.83;;
31130;SDS011;20292;50.944;4.034;2022-12-05T08:44:50;100.55;;;39.08;;
31130;SDS011;20292;50.944;4.034;2022-12-05T08:47:16;89.50;;;37.35;;
31130;SDS011;20292;50.944;4.034;2022-12-05T08:49:42;87.35;;;37.80;;
31130;SDS011;20292;50.944;4.034;2022-12-05T08:52:07;90.28;;;39.83;;
31130;SDS011;20292;50.944;4.034;2022-12-05T08:54:33;89.65;;;37.45;;
31130;SDS011;20292;50.944;4.034;2022-12-05T08:56:58;94.32;;;38.67;;
31130;SDS011;20292;50.944;4.034;2022-12-05T08:59:24;94.22;;;38.88;;
31130;SDS011;20292;50.944;4.034;2022-12-05T09:01:49;98.85;;;39.10;;
31130;SDS011;20292;50.944;4.034;2022-12-05T09:04:15;90.47;;;38.28;;
31130;SDS011;20292;50.944;4.034;2022-12-05T09:06:40;93.43;;;38.75;;
31130;SDS011;20292;50.944;4.034;2022-12-05T09:09:07;97.20;;;39.13;;
31130;SDS011;20292;50.944;4.034;2022-12-05T09:11:36;94.07;;;39.15;;
31130;SDS011;20292;50.944;4.034;2022-12-05T09:14:05;90.80;;;39.42;;
31130;SDS011;20292;50.944;4.034;2022-12-05T09:16:32;92.65;;;38.63;;
31130;SDS011;20292;50.944;4.034;2022-12-05T09:18:59;86.05;;;37.80;;
31130;SDS011;20292;50.944;4.034;2022-12-05T09:21:25;83.25;;;37.80;;
31130;SDS011;20292;50.944;4.034;2022-12-05T09:23:52;88.10;;;37.40;;
31130;SDS011;20292;50.944;4.034;2022-12-05T09:26:19;87.40;;;38.70;;
31130;SDS011;20292;50.944;4.034;2022-12-05T09:28:47;77.82;;;35.85;;
31130;SDS011;20292;50.944;4.034;2022-12-05T09:31:18;81.97;;;35.95;;
31130;SDS011;20292;50.944;4.034;2022-12-05T09:33:46;85.82;;;36.72;;
31130;SDS011;20292;50.944;4.034;2022-12-05T09:36:14;77.97;;;36.10;;
31130;SDS011;20292;50.944;4.034;2022-12-05T09:38:41;87.63;;;37.33;;
31130;SDS011;20292;50.944;4.034;2022-12-05T09:41:14;77.38;;;36.88;;
31130;SDS011;20292;50.944;4.034;2022-12-05T09:44:34;74.47;;;34.15;;
31130;SDS011;20292;50.944;4.034;2022-12-05T09:50:17;71.82;;;32.58;;
31130;SDS011;20292;50.944;4.034;2022-12-05T09:55:50;71.70;;;32.30;;
31130;SDS011;20292;50.944;4.034;2022-12-05T09:58:47;68.07;;;32.22;;
31130;SDS011;20292;50.944;4.034;2022-12-05T10:09:43;71.60;;;32.92;;
31130;SDS011;20292;50.944;4.034;2022-12-05T10:17:37;63.15;;;30.50;;
31130;SDS011;20292;50.944;4.034;2022-12-05T10:20:16;61.33;;;29.85;;
31130;SDS011;20292;50.944;4.034;2022-12-05T10:22:49;60.03;;;30.15;;
31130;SDS011;20292;50.944;4.034;2022-12-05T10:25:20;60.50;;;29.70;;
31130;SDS011;20292;50.944;4.034;2022-12-05T10:27:49;63.22;;;29.23;;
31130;SDS011;20292;50.944;4.034;2022-12-05T10:30:23;59.47;;;28.80;;
31130;SDS011;20292;50.944;4.034;2022-12-05T10:32:52;62.40;;;29.13;;
31130;SDS011;20292;50.944;4.034;2022-12-05T10:35:23;61.85;;;28.80;;
31130;SDS011;20292;50.944;4.034;2022-12-05T10:38:11;57.75;;;27.70;;
31130;SDS011;20292;50.944;4.034;2022-12-05T10:40:48;56.08;;;26.95;;
31130;SDS011;20292;50.944;4.034;2022-12-05T10:43:20;53.03;;;26.38;;
31130;SDS011;20292;50.944;4.034;2022-12-05T10:48:18;57.10;;;24.08;;
31130;SDS011;20292;50.944;4.034;2022-12-05T10:50:46;51.35;;;25.90;;
31130;SDS011;20292;50.944;4.034;2022-12-05T10:53:18;44.28;;;23.55;;
31130;SDS011;20292;50.944;4.034;2022-12-05T10:55:53;47.33;;;24.30;;
31130;SDS011;20292;50.944;4.034;2022-12-05T10:58:20;49.65;;;25.02;;
31130;SDS011;20292;50.944;4.034;2022-12-05T11:00:57;47.38;;;24.98;;
31130;SDS011;20292;50.944;4.034;2022-12-05T11:03:38;45.30;;;23.25;;
31130;SDS011;20292;50.944;4.034;2022-12-05T11:06:16;46.20;;;24.13;;
31130;SDS011;20292;50.944;4.034;2022-12-05T11:08:50;45.90;;;23.25;;
31130;SDS011;20292;50.944;4.034;2022-12-05T11:11:35;41.45;;;23.30;;
31130;SDS011;20292;50.944;4.034;2022-12-05T11:14:02;43.40;;;23.60;;
31130;SDS011;20292;50.944;4.034;2022-12-05T11:16:49;45.33;;;23.15;;
31130;SDS011;20292;50.944;4.034;2022-12-05T11:19:34;41.42;;;22.48;;
31130;SDS011;20292;50.944;4.034;2022-12-05T11:22:06;45.88;;;24.05;;
31130;SDS011;20292;50.944;4.034;2022-12-05T11:24:40;44.38;;;23.70;;
31130;SDS011;20292;50.944;4.034;2022-12-05T11:29:40;44.30;;;23.42;;
31130;SDS011;20292;50.944;4.034;2022-12-05T11:32:17;44.15;;;22.70;;
31130;SDS011;20292;50.944;4.034;2022-12-05T11:34:46;44.15;;;23.48;;
31130;SDS011;20292;50.944;4.034;2022-12-05T11:37:21;41.70;;;22.67;;
31130;SDS011;20292;50.944;4.034;2022-12-05T11:39:50;46.40;;;23.40;;
31130;SDS011;20292;50.944;4.034;2022-12-05T11:42:29;47.30;;;24.00;;
31130;SDS011;20292;50.944;4.034;2022-12-05T11:54:14;51.33;;;26.13;;
31130;SDS011;20292;50.944;4.034;2022-12-05T11:57:09;54.05;;;27.17;;
31130;SDS011;20292;50.944;4.034;2022-12-05T12:00:04;47.58;;;25.75;;
31130;SDS011;20292;50.944;4.034;2022-12-05T12:03:09;52.25;;;25.83;;
31130;SDS011;20292;50.944;4.034;2022-12-05T12:08:55;49.13;;;26.33;;
31130;SDS011;20292;50.944;4.034;2022-12-05T12:11:30;47.72;;;26.13;;
31130;SDS011;20292;50.944;4.034;2022-12-05T12:22:18;53.17;;;26.88;;
31130;SDS011;20292;50.944;4.034;2022-12-05T12:24:52;51.40;;;27.33;;
31130;SDS011;20292;50.944;4.034;2022-12-05T12:30:18;53.30;;;27.98;;
31130;SDS011;20292;50.944;4.034;2022-12-05T12:33:14;52.60;;;27.95;;
31130;SDS011;20292;50.944;4.034;2022-12-05T12:36:02;53.38;;;29.10;;
31130;SDS011;20292;50.944;4.034;2022-12-05T12:46:31;52.28;;;27.80;;
31130;SDS011;20292;50.944;4.034;2022-12-05T12:49:26;51.85;;;28.40;;
31130;SDS011;20292;50.944;4.034;2022-12-05T12:52:00;55.03;;;27.60;;
31130;SDS011;20292;50.944;4.034;2022-12-05T13:00:10;55.63;;;28.58;;
31130;SDS011;20292;50.944;4.034;2022-12-05T13:02:42;56.70;;;28.55;;
31130;SDS011;20292;50.944;4.034;2022-12-05T13:07:57;57.22;;;30.30;;
31130;SDS011;20292;50.944;4.034;2022-12-05T13:10:50;56.30;;;29.67;;
31130;SDS011;20292;50.944;4.034;2022-12-05T13:13:17;54.40;;;29.17;;
31130;SDS011;20292;50.944;4.034;2022-12-05T13:15:46;52.47;;;29.02;;
31130;SDS011;20292;50.944;4.034;2022-12-05T13:18:16;48.15;;;27.52;;
31130;SDS011;20292;50.944;4.034;2022-12-05T13:20:45;50.72;;;26.95;;
31130;SDS011;20292;50.944;4.034;2022-12-05T13:23:15;51.63;;;28.25;;
31130;SDS011;20292;50.944;4.034;2022-12-05T13:25:42;44.47;;;24.95;;
31130;SDS011;20292;50.944;4.034;2022-12-05T13:28:22;46.92;;;26.73;;
31130;SDS011;20292;50.944;4.034;2022-12-05T13:30:57;47.58;;;26.27;;
31130;SDS011;20292;50.944;4.034;2022-12-05T13:33:30;46.05;;;26.17;;
31130;SDS011;20292;50.944;4.034;2022-12-05T13:36:56;46.33;;;26.08;;
31130;SDS011;20292;50.944;4.034;2022-12-05T13:39:21;45.38;;;25.08;;
31130;SDS011;20292;50.944;4.034;2022-12-05T13:42:17;46.65;;;25.50;;
31130;SDS011;20292;50.944;4.034;2022-12-05T13:47:40;41.92;;;23.58;;
31130;SDS011;20292;50.944;4.034;2022-12-05T13:52:52;43.80;;;22.90;;
31130;SDS011;20292;50.944;4.034;2022-12-05T13:57:52;41.50;;;22.48;;
31130;SDS011;20292;50.944;4.034;2022-12-05T14:00:20;41.50;;;22.80;;
31130;SDS011;20292;50.944;4.034;2022-12-05T14:03:00;40.83;;;22.75;;
31130;SDS011;20292;50.944;4.034;2022-12-05T14:05:42;43.55;;;24.10;;
31130;SDS011;20292;50.944;4.034;2022-12-05T14:18:48;47.60;;;24.25;;
31130;SDS011;20292;50.944;4.034;2022-12-05T14:21:38;43.80;;;24.63;;
31130;SDS011;20292;50.944;4.034;2022-12-05T14:32:02;57.45;;;30.80;;
31130;SDS011;20292;50.944;4.034;2022-12-05T14:37:25;56.75;;;29.73;;
31130;SDS011;20292;50.944;4.034;2022-12-05T14:39:56;56.28;;;28.80;;
31130;SDS011;20292;50.944;4.034;2022-12-05T14:45:03;58.83;;;30.23;;
31130;SDS011;20292;50.944;4.034;2022-12-05T14:47:51;54.28;;;29.70;;
31130;SDS011;20292;50.944;4.034;2022-12-05T14:58:35;58.78;;;30.85;;
31130;SDS011;20292;50.944;4.034;2022-12-05T15:01:21;58.67;;;30.73;;
31130;SDS011;20292;50.944;4.034;2022-12-05T15:06:26;58.33;;;29.98;;
31130;SDS011;20292;50.944;4.034;2022-12-05T15:08:53;64.88;;;32.22;;
31130;SDS011;20292;50.944;4.034;2022-12-05T15:11:22;60.53;;;31.02;;
31130;SDS011;20292;50.944;4.034;2022-12-05T15:14:39;69.00;;;31.27;;
31130;SDS011;20292;50.944;4.034;2022-12-05T15:16:50;60.53;;;31.92;;
31130;SDS011;20292;50.944;4.034;2022-12-05T15:19:23;68.03;;;32.65;;
31130;SDS011;20292;50.944;4.034;2022-12-05T15:21:56;68.55;;;31.88;;
31130;SDS011;20292;50.944;4.034;2022-12-05T15:24:35;59.58;;;30.67;;
31130;SDS011;20292;50.944;4.034;2022-12-05T15:27:02;65.15;;;32.80;;
31130;SDS011;20292;50.944;4.034;2022-12-05T15:29:28;71.03;;;33.97;;
31130;SDS011;20292;50.944;4.034;2022-12-05T15:32:00;63.10;;;32.85;;
31130;SDS011;20292;50.944;4.034;2022-12-05T15:50:12;69.40;;;35.65;;
31130;SDS011;20292;50.944;4.034;2022-12-05T15:52:40;73.50;;;35.35;;
31130;SDS011;20292;50.944;4.034;2022-12-05T15:55:13;68.18;;;34.97;;
31130;SDS011;20292;50.944;4.034;2022-12-05T15:57:47;69.43;;;35.00;;
31130;SDS011;20292;50.944;4.034;2022-12-05T16:00:18;72.40;;;35.97;;
31130;SDS011;20292;50.944;4.034;2022-12-05T16:03:09;72.93;;;34.47;;
31130;SDS011;20292;50.944;4.034;2022-12-05T16:05:46;69.55;;;34.88;;
31130;SDS011;20292;50.944;4.034;2022-12-05T16:08:16;75.82;;;35.15;;
31130;SDS011;20292;50.944;4.034;2022-12-05T16:10:42;73.53;;;35.15;;
31130;SDS011;20292;50.944;4.034;2022-12-05T16:13:14;71.93;;;34.20;;
31130;SDS011;20292;50.944;4.034;2022-12-05T16:15:45;74.05;;;34.90;;
31130;SDS011;20292;50.944;4.034;2022-12-05T16:18:48;74.15;;;35.47;;
31130;SDS011;20292;50.944;4.034;2022-12-05T16:21:29;70.80;;;34.65;;
31130;SDS011;20292;50.944;4.034;2022-12-05T16:24:02;71.63;;;34.92;;
31130;SDS011;20292;50.944;4.034;2022-12-05T16:26:30;84.70;;;36.90;;
31130;SDS011;20292;50.944;4.034;2022-12-05T16:29:01;77.25;;;34.58;;
31130;SDS011;20292;50.944;4.034;2022-12-05T16:31:28;66.70;;;34.50;;
31130;SDS011;20292;50.944;4.034;2022-12-05T16:34:06;79.32;;;37.08;;
31130;SDS011;20292;50.944;4.034;2022-12-05T16:36:44;74.68;;;36.45;;
31130;SDS011;20292;50.944;4.034;2022-12-05T16:39:12;66.95;;;34.42;;
31130;SDS011;20292;50.944;4.034;2022-12-05T16:41:39;72.35;;;36.33;;
31130;SDS011;20292;50.944;4.034;2022-12-05T16:44:15;67.25;;;35.00;;
31130;SDS011;20292;50.944;4.034;2022-12-05T16:46:55;67.95;;;35.22;;
31130;SDS011;20292;50.944;4.034;2022-12-05T16:49:34;73.60;;;33.30;;
31130;SDS011;20292;50.944;4.034;2022-12-05T16:52:21;67.32;;;33.92;;
31130;SDS011;20292;50.944;4.034;2022-12-05T16:54:47;65.93;;;33.83;;
31130;SDS011;20292;50.944;4.034;2022-12-05T16:57:14;66.65;;;37.08;;
31130;SDS011;20292;50.944;4.034;2022-12-05T16:59:41;65.13;;;35.20;;
31130;SDS011;20292;50.944;4.034;2022-12-05T17:02:11;63.58;;;35.55;;
31130;SDS011;20292;50.944;4.034;2022-12-05T17:04:38;71.65;;;39.72;;
31130;SDS011;20292;50.944;4.034;2022-12-05T17:07:04;72.82;;;37.70;;
31130;SDS011;20292;50.944;4.034;2022-12-05T17:09:29;68.97;;;35.92;;
31130;SDS011;20292;50.944;4.034;2022-12-05T17:12:06;72.75;;;38.70;;
31130;SDS011;20292;50.944;4.034;2022-12-05T17:14:41;70.38;;;34.50;;
31130;SDS011;20292;50.944;4.034;2022-12-05T17:17:11;73.43;;;38.55;;
31130;SDS011;20292;50.944;4.034;2022-12-05T17:19:39;76.25;;;38.97;;
31130;SDS011;20292;50.944;4.034;2022-12-05T17:22:05;67.30;;;36.33;;
31130;SDS011;20292;50.944;4.034;2022-12-05T17:24:31;85.20;;;45.78;;
31130;SDS011;20292;50.944;4.034;2022-12-05T17:26:56;129.93;;;64.43;;
31130;SDS011;20292;50.944;4.034;2022-12-05T17:29:22;136.90;;;57.40;;
31130;SDS011;20292;50.944;4.034;2022-12-05T17:31:48;175.95;;;70.05;;